createdAt,value
2022-08-04T00:04:18.175Z,100386.13
2022-08-04T00:06:54.134Z,100391.06
2022-08-04T00:09:41.632Z,100399.78
2022-08-04T00:12:14.213Z,100398.16
2022-08-04T00:14:49.347Z,100398.66
2022-08-04T00:17:22.386Z,100403.56
2022-08-04T00:19:55.349Z,100403.03
2022-08-04T00:22:28.049Z,100393.25
2022-08-04T00:24:57.309Z,100404.16
2022-08-04T00:27:25.630Z,100409.34
2022-08-04T00:29:54.262Z,100402.22
2022-08-04T00:32:34.106Z,100405.78
2022-08-04T00:35:10.114Z,100409.06
2022-08-04T00:37:39.581Z,100405.78
2022-08-04T00:40:20.141Z,100400.88
2022-08-04T00:42:59.369Z,100397.31
2022-08-04T00:46:16.197Z,100401.97
2022-08-04T00:49:34.716Z,100405.75
2022-08-04T00:52:33.087Z,100407.38
2022-08-04T00:55:24.231Z,100410.69
2022-08-04T00:58:11.679Z,100403.06
2022-08-04T01:00:49.317Z,100411.78
2022-08-04T01:03:25.414Z,100414.25
2022-08-04T01:06:07.576Z,100409.34
2022-08-04T01:08:53.893Z,100409.63
2022-08-04T01:11:57.645Z,100409.09
2022-08-04T01:14:37.273Z,100411.03
2022-08-04T01:17:14.124Z,100405.03
2022-08-04T01:20:16.680Z,100418.63
2022-08-04T01:23:18.738Z,100417.78
2022-08-04T01:26:43.168Z,100411.50
2022-08-04T01:29:09.721Z,100415.59
2022-08-04T01:31:57.522Z,100415.88
2022-08-04T01:34:29.992Z,100419.69
2022-08-04T01:37:01.240Z,100417.47
2022-08-04T01:39:42.045Z,100420.72
2022-08-04T01:42:31.677Z,100428.06
2022-08-04T01:45:02.862Z,100429.41
2022-08-04T01:47:32.058Z,100421.50
2022-08-04T01:50:08.415Z,100425.84
2022-08-04T01:52:37.560Z,100426.94
2022-08-04T01:55:09.411Z,100430.50
2022-08-04T01:57:39.520Z,100430.22
2022-08-04T02:00:11.190Z,100430.78
2022-08-04T02:02:39.345Z,100426.16
2022-08-04T02:05:07.739Z,100434.63
2022-08-04T02:08:01.702Z,100420.78
2022-08-04T02:10:33.971Z,100426.25
2022-08-04T02:13:13.215Z,100421.34
2022-08-04T02:15:57.963Z,100426.00
2022-08-04T02:18:31.879Z,100428.75
2022-08-04T02:21:02.493Z,100429.56
2022-08-04T02:23:35.947Z,100426.31
2022-08-04T02:26:05.569Z,100420.56
2022-08-04T02:28:41.296Z,100422.78
2022-08-04T02:31:23.767Z,100427.13
2022-08-04T02:34:03.157Z,100412.13
2022-08-04T02:36:39.734Z,100423.00
2022-08-04T02:39:09.266Z,100423.81
2022-08-04T02:41:38.025Z,100430.06
2022-08-04T02:44:08.576Z,100423.84
2022-08-04T02:46:40.607Z,100430.63
2022-08-04T02:49:10.526Z,100433.63
2022-08-04T02:51:41.775Z,100432.56
2022-08-04T02:54:10.491Z,100418.09
2022-08-04T02:56:40.991Z,100431.47
2022-08-04T02:59:12.418Z,100430.66
2022-08-04T03:01:57.150Z,100427.38
2022-08-04T03:04:47.505Z,100431.19
2022-08-04T03:07:47.878Z,100430.94
2022-08-04T03:10:54.565Z,100431.47
2022-08-04T03:13:49.979Z,100440.72
2022-08-04T03:17:05.908Z,100434.72
2022-08-04T03:20:09.263Z,100435.25
2022-08-04T03:23:13.536Z,100430.31
2022-08-04T03:26:09.980Z,100429.78
2022-08-04T03:29:12.263Z,100433.53
2022-08-04T03:32:26.343Z,100426.91
2022-08-04T03:35:10.458Z,100421.59
2022-08-04T03:38:14.297Z,100431.06
2022-08-04T03:41:02.709Z,100434.34
2022-08-04T03:44:02.019Z,100442.19
2022-08-04T03:46:54.444Z,100437.28
2022-08-04T03:50:04.733Z,100440.00
2022-08-04T03:53:12.009Z,100451.66
2022-08-04T03:56:00.410Z,100457.91
2022-08-04T03:58:46.892Z,100467.69
2022-08-04T04:02:01.558Z,100462.31
2022-08-04T04:04:55.175Z,100468.31
2022-08-04T04:08:19.155Z,100470.78
2022-08-04T04:11:56.360Z,100474.94
2022-08-04T04:14:46.778Z,100474.66
2022-08-04T04:17:40.343Z,100473.03
2022-08-04T04:20:53.272Z,100479.88
2022-08-04T04:23:32.961Z,100483.69
2022-08-04T04:26:08.924Z,100484.50
2022-08-04T04:28:53.759Z,100488.09
2022-08-04T04:31:45.852Z,100487.56
2022-08-04T04:34:27.727Z,100494.38
2022-08-04T04:37:11.157Z,100494.34
2022-08-04T04:39:51.528Z,100506.00
2022-08-04T04:42:51.076Z,100491.31
2022-08-04T04:45:25.805Z,100507.91
2022-08-04T04:48:09.015Z,100512.81
2022-08-04T04:50:51.213Z,100508.09
2022-08-04T04:53:28.701Z,100502.00
2022-08-04T04:56:06.972Z,100508.44
2022-08-04T04:58:38.204Z,100505.19
2022-08-04T05:01:38.587Z,100508.28
2022-08-04T05:04:24.002Z,100507.53
2022-08-04T05:07:27.008Z,100514.28
2022-08-04T05:10:10.065Z,100513.66
2022-08-04T05:14:34.685Z,100516.94
2022-08-04T05:15:54.901Z,100514.13
2022-08-04T05:18:28.482Z,100506.28
2022-08-04T05:21:07.283Z,100518.03
2022-08-04T05:23:40.579Z,100523.53
2022-08-04T05:26:13.415Z,100524.66
2022-08-04T05:28:43.975Z,100520.38
2022-08-04T05:31:13.811Z,100524.50
2022-08-04T05:33:50.224Z,100528.72
2022-08-04T05:36:40.208Z,100522.44
2022-08-04T05:39:13.538Z,100528.72
2022-08-04T05:41:45.378Z,100528.78
2022-08-04T05:44:17.998Z,100533.16
2022-08-04T05:46:54.037Z,100534.81
2022-08-04T05:49:26.413Z,100538.91
2022-08-04T05:51:59.734Z,100538.88
2022-08-04T05:54:29.651Z,100543.50
2022-08-04T05:56:59.556Z,100543.25
2022-08-04T05:59:28.915Z,100536.69
2022-08-04T06:01:59.141Z,100544.31
2022-08-04T06:04:36.642Z,100551.03
2022-08-04T06:07:06.491Z,100554.84
2022-08-04T06:09:34.630Z,100553.00
2022-08-04T06:12:07.895Z,100549.13
2022-08-04T06:14:41.923Z,100544.22
2022-08-04T06:18:34.030Z,100545.66
2022-08-04T06:20:19.409Z,100543.47
2022-08-04T06:22:55.671Z,100546.72
2022-08-04T06:25:29.929Z,100546.09
2022-08-04T06:28:03.996Z,100545.22
2022-08-04T06:30:33.088Z,100542.69
2022-08-04T06:33:05.152Z,100540.41
2022-08-04T06:35:39.418Z,100533.84
2022-08-04T06:38:09.996Z,100534.34
2022-08-04T06:40:40.688Z,100536.59
2022-08-04T06:43:09.196Z,100534.63
2022-08-04T06:45:41.443Z,100532.16
2022-08-04T06:48:13.581Z,100540.81
2022-08-04T06:51:30.649Z,100546.59
2022-08-04T06:53:32.705Z,100550.94
2022-08-04T06:56:02.370Z,100548.75
2022-08-04T06:58:34.459Z,100564.53
2022-08-04T07:01:04.277Z,100556.81
2022-08-04T07:03:42.144Z,100549.31
2022-08-04T07:06:14.674Z,100540.34
2022-08-04T07:08:44.890Z,100544.84
2022-08-04T07:11:14.257Z,100551.06
2022-08-04T07:13:45.166Z,100554.09
2022-08-04T07:16:15.835Z,100558.34
2022-08-04T07:18:45.693Z,100557.66
2022-08-04T07:21:23.345Z,100550.63
2022-08-04T07:23:52.826Z,100561.69
2022-08-04T07:26:21.067Z,100560.44
2022-08-04T07:28:49.185Z,100561.59
2022-08-04T07:31:33.805Z,100561.84
2022-08-04T07:34:16.885Z,100561.31
2022-08-04T07:36:52.753Z,100550.81
2022-08-04T07:39:28.537Z,100556.13
2022-08-04T07:42:04.521Z,100556.56
2022-08-04T07:44:39.461Z,100550.00
2022-08-04T07:47:08.768Z,100555.28
2022-08-04T07:49:55.530Z,100545.47
2022-08-04T07:52:26.317Z,100553.22
2022-08-04T07:54:56.377Z,100553.34
2022-08-04T07:57:39.747Z,100545.72
2022-08-04T08:00:10.725Z,100545.94
2022-08-04T08:02:39.946Z,100544.69
2022-08-04T08:05:11.318Z,100529.97
2022-08-04T08:07:50.208Z,100548.56
2022-08-04T08:10:21.732Z,100541.56
2022-08-04T08:12:52.312Z,100550.19
2022-08-04T08:15:22.923Z,100557.00
2022-08-04T08:17:59.063Z,100551.00
2022-08-04T08:20:30.974Z,100545.03
2022-08-04T08:23:00.137Z,100540.34
2022-08-04T08:25:31.785Z,100539.44
2022-08-04T08:28:00.264Z,100547.06
2022-08-04T08:30:31.701Z,100541.25
2022-08-04T08:33:03.927Z,100541.94
2022-08-04T08:35:53.298Z,100540.22
2022-08-04T08:38:46.279Z,100543.66
2022-08-04T08:41:54.107Z,100539.78
2022-08-04T08:45:18.077Z,100543.56
2022-08-04T08:48:06.988Z,100526.28
2022-08-04T08:51:04.260Z,100531.38
2022-08-04T08:54:00.712Z,100542.84
2022-08-04T08:56:38.194Z,100543.28
2022-08-04T08:59:33.910Z,100527.94
2022-08-04T09:02:33.990Z,100532.59
2022-08-04T09:05:20.049Z,100529.03
2022-08-04T09:07:59.109Z,100541.44
2022-08-04T09:10:35.196Z,100540.94
2022-08-04T09:13:10.685Z,100540.22
2022-08-04T09:15:48.135Z,100538.31
2022-08-04T09:18:38.920Z,100535.94
2022-08-04T09:21:15.235Z,100533.19
2022-08-04T09:23:53.106Z,100529.84
2022-08-04T09:26:31.257Z,100533.44
2022-08-04T09:29:09.741Z,100532.41
2022-08-04T09:31:51.409Z,100529.28
2022-08-04T09:34:45.074Z,100537.81
2022-08-04T09:37:24.957Z,100533.69
2022-08-04T09:40:04.432Z,100536.22
2022-08-04T09:42:39.625Z,100532.75
2022-08-04T09:45:26.013Z,100526.72
2022-08-04T09:47:58.747Z,100529.22
2022-08-04T09:50:35.563Z,100520.03
2022-08-04T09:53:32.001Z,100523.47
2022-08-04T09:56:10.006Z,100518.75
2022-08-04T09:58:55.198Z,100514.84
2022-08-04T10:01:28.139Z,100522.59
2022-08-04T10:04:00.326Z,100523.53
2022-08-04T10:06:44.289Z,100519.16
2022-08-04T10:09:32.537Z,100519.16
2022-08-04T10:12:16.784Z,100531.97
2022-08-04T10:14:54.166Z,100522.41
2022-08-04T10:17:51.927Z,100516.25
2022-08-04T10:20:45.363Z,100529.22
2022-08-04T10:23:32.937Z,100524.84
2022-08-04T10:26:30.326Z,100517.09
2022-08-04T10:29:03.791Z,100511.44
2022-08-04T10:31:36.635Z,100510.97
2022-08-04T10:34:13.319Z,100508.59
2022-08-04T10:36:50.812Z,100505.06
2022-08-04T10:39:42.697Z,100492.56
2022-08-04T10:42:42.669Z,100499.03
2022-08-04T10:45:19.255Z,100495.59
2022-08-04T10:47:58.715Z,100495.41
2022-08-04T10:50:31.660Z,100485.84
2022-08-04T10:53:08.683Z,100490.38
2022-08-04T10:56:06.786Z,100478.63
2022-08-04T10:58:48.984Z,100478.78
2022-08-04T11:02:00.962Z,100477.31
2022-08-04T11:04:27.573Z,100471.31
2022-08-04T11:07:00.235Z,100474.88
2022-08-04T11:09:30.148Z,100469.25
2022-08-04T11:12:12.228Z,100465.97
2022-08-04T11:14:47.933Z,100462.41
2022-08-04T11:17:23.075Z,100463.44
2022-08-04T11:20:31.753Z,100457.22
2022-08-04T11:22:57.920Z,100449.47
2022-08-04T11:25:31.297Z,100448.94
2022-08-04T11:28:05.798Z,100454.81
2022-08-04T11:30:44.628Z,100451.00
2022-08-04T11:33:22.140Z,100446.38
2022-08-04T11:35:59.068Z,100444.31
2022-08-04T11:38:38.127Z,100448.59
2022-08-04T11:41:12.058Z,100442.50
2022-08-04T11:44:00.911Z,100440.56
2022-08-04T11:46:37.038Z,100442.53
2022-08-04T11:49:09.624Z,100439.59
2022-08-04T11:51:38.372Z,100447.06
2022-08-04T11:54:07.984Z,100438.00
2022-08-04T11:56:38.026Z,100435.50
2022-08-04T11:59:09.816Z,100429.16
2022-08-04T12:01:54.663Z,100432.00
2022-08-04T12:04:48.545Z,100429.66
2022-08-04T12:07:30.508Z,100425.34
2022-08-04T12:10:13.190Z,100423.25
2022-08-04T12:12:48.367Z,100425.06
2022-08-04T12:15:22.252Z,100411.38
2022-08-04T12:17:59.887Z,100419.94
2022-08-04T12:20:41.008Z,100413.56
2022-08-04T12:23:23.027Z,100409.69
2022-08-04T12:25:57.298Z,100405.78
2022-08-04T12:28:52.462Z,100415.91
2022-08-04T12:31:25.339Z,100401.78
2022-08-04T12:34:05.785Z,100401.78
2022-08-04T12:36:41.312Z,100392.44
2022-08-04T12:39:14.195Z,100387.19
2022-08-04T12:41:49.842Z,100397.47
2022-08-04T12:44:36.710Z,100394.56
2022-08-04T12:47:28.387Z,100397.34
2022-08-04T12:50:02.878Z,100388.88
2022-08-04T12:53:01.536Z,100390.97
2022-08-04T12:55:40.371Z,100384.44
2022-08-04T12:58:42.203Z,100386.09
2022-08-04T13:02:09.628Z,100382.59
2022-08-04T13:03:58.957Z,100381.22
2022-08-04T13:06:30.395Z,100372.59
2022-08-04T13:09:05.543Z,100373.25
2022-08-04T13:11:40.456Z,100374.38
2022-08-04T13:14:27.079Z,100366.31
2022-08-04T13:17:02.320Z,100364.03
2022-08-04T13:19:39.653Z,100362.06
2022-08-04T13:22:12.679Z,100368.53
2022-08-04T13:25:18.213Z,100361.03
2022-08-04T13:27:43.011Z,100353.56
2022-08-04T13:30:22.576Z,100354.03
2022-08-04T13:32:56.574Z,100352.03
2022-08-04T13:35:55.181Z,100346.94
2022-08-04T13:38:28.965Z,100340.53
2022-08-04T13:40:58.773Z,100334.03
2022-08-04T13:44:16.104Z,100330.72
2022-08-04T13:46:27.032Z,100328.13
2022-08-04T13:49:26.074Z,100324.66
2022-08-04T13:51:57.905Z,100311.66
2022-08-04T13:54:30.518Z,100304.97
2022-08-04T13:57:02.259Z,100299.56
2022-08-04T13:59:40.871Z,100297.72
2022-08-04T14:02:26.044Z,100291.81
2022-08-04T14:04:59.022Z,100294.22
2022-08-04T14:07:32.349Z,100286.88
2022-08-04T14:10:03.967Z,100287.88
2022-08-04T14:12:45.994Z,100288.00
2022-08-04T14:15:54.764Z,100287.88
2022-08-04T14:18:26.653Z,100293.75
2022-08-04T14:21:13.871Z,100296.19
2022-08-04T14:23:51.182Z,100296.91
2022-08-04T14:26:32.346Z,100283.06
2022-08-04T14:29:26.789Z,100284.91
2022-08-04T14:32:03.189Z,100276.13
2022-08-04T14:34:41.454Z,100271.50
2022-08-04T14:37:16.405Z,100270.00
2022-08-04T14:40:17.655Z,100272.44
2022-08-04T14:42:44.014Z,100271.63
2022-08-04T14:45:12.593Z,100253.44
2022-08-04T14:47:52.866Z,100251.22
2022-08-04T14:50:35.469Z,100246.53
2022-08-04T14:53:09.290Z,100236.34
2022-08-04T14:55:38.478Z,100238.78
2022-08-04T14:58:35.373Z,100243.28
2022-08-04T15:00:57.470Z,100247.66
2022-08-04T15:03:26.702Z,100244.69
2022-08-04T15:06:02.733Z,100242.72
2022-08-04T15:08:35.493Z,100231.50
2022-08-04T15:11:03.758Z,100226.16
2022-08-04T15:13:33.655Z,100210.47
2022-08-04T15:16:07.481Z,100211.84
2022-08-04T15:18:38.949Z,100213.13
2022-08-04T15:21:09.522Z,100207.84
2022-08-04T15:23:39.703Z,100201.25
2022-08-04T15:26:11.709Z,100173.13
2022-08-04T15:28:42.401Z,100181.72
2022-08-04T15:32:07.773Z,100191.72
2022-08-04T15:34:00.478Z,100171.19
2022-08-04T15:36:43.602Z,100170.03
2022-08-04T15:39:28.835Z,100182.19
2022-08-04T15:42:20.520Z,100182.88
2022-08-04T15:45:06.293Z,100175.53
2022-08-04T15:47:34.454Z,100168.16
2022-08-04T15:50:09.478Z,100167.75
2022-08-04T15:53:12.467Z,100173.34
2022-08-04T15:55:43.877Z,100161.16
2022-08-04T15:58:13.622Z,100170.31
2022-08-04T16:01:15.720Z,100169.56
2022-08-04T16:03:58.337Z,100166.16
2022-08-04T16:06:47.598Z,100165.88
2022-08-04T16:09:45.191Z,100157.53
2022-08-04T16:12:55.673Z,100161.81
2022-08-04T16:15:38.662Z,100151.97
2022-08-04T16:18:13.773Z,100149.78
2022-08-04T16:20:56.031Z,100147.03
2022-08-04T16:23:54.920Z,100148.56
2022-08-04T16:26:55.089Z,100146.47
2022-08-04T16:29:39.063Z,100155.06
2022-08-04T16:32:18.139Z,100156.31
2022-08-04T16:34:54.812Z,100160.59
2022-08-04T16:37:26.576Z,100166.38
2022-08-04T16:40:40.340Z,100169.06
2022-08-04T16:43:13.592Z,100172.47
2022-08-04T16:45:54.088Z,100171.72
2022-08-04T16:48:27.259Z,100164.28
2022-08-04T16:51:05.352Z,100162.63
2022-08-04T16:53:53.463Z,100158.31
2022-08-04T16:56:30.556Z,100156.53
2022-08-04T16:59:09.633Z,100144.34
2022-08-04T17:01:49.061Z,100153.09
2022-08-04T17:04:17.685Z,100140.03
2022-08-04T17:06:47.758Z,100141.66
2022-08-04T17:09:19.253Z,100138.25
2022-08-04T17:11:49.409Z,100142.72
2022-08-04T17:14:25.811Z,100147.97
2022-08-04T17:16:55.584Z,100153.06
2022-08-04T17:19:25.703Z,100153.25
2022-08-04T17:22:02.998Z,100153.78
2022-08-04T17:24:35.123Z,100151.63
2022-08-04T17:27:13.842Z,100145.81
2022-08-04T17:29:56.603Z,100145.97
2022-08-04T17:32:25.361Z,100153.22
2022-08-04T17:34:55.706Z,100142.63
2022-08-04T17:37:39.951Z,100143.44
2022-08-04T17:40:12.302Z,100139.59
2022-08-04T17:42:41.755Z,100114.63
2022-08-04T17:48:03.552Z,100109.56
2022-08-04T17:50:35.108Z,100103.47
2022-08-04T17:53:12.225Z,100098.25
2022-08-04T17:55:42.459Z,100100.22
2022-08-04T17:58:21.013Z,100104.88
2022-08-04T18:03:51.900Z,100106.38
2022-08-04T18:06:25.634Z,100118.06
2022-08-04T18:08:57.974Z,100118.66
2022-08-04T18:11:41.835Z,100130.19
2022-08-04T18:14:11.978Z,100129.59
2022-08-04T18:16:47.989Z,100128.50
2022-08-04T18:19:18.992Z,100139.69
2022-08-04T18:22:00.298Z,100136.59
2022-08-04T18:24:35.274Z,100132.56
2022-08-04T18:27:19.782Z,100133.38
2022-08-04T18:30:33.880Z,100138.53
2022-08-04T18:33:24.211Z,100144.88
2022-08-04T18:36:35.436Z,100143.88
2022-08-04T18:38:35.411Z,100148.91
2022-08-04T18:41:03.638Z,100165.66
2022-08-04T18:43:40.708Z,100154.25
2022-08-04T18:46:15.453Z,100149.84
2022-08-04T18:48:52.593Z,100155.72
2022-08-04T18:51:22.894Z,100178.72
2022-08-04T18:53:59.458Z,100216.56
2022-08-04T18:56:32.854Z,100250.16
2022-08-04T18:59:03.141Z,100284.31
2022-08-04T19:02:13.788Z,100290.06
2022-08-04T19:04:33.146Z,100242.44
2022-08-04T19:07:29.653Z,100223.25
2022-08-04T19:09:58.044Z,100247.94
2022-08-04T19:12:28.651Z,100257.13
2022-08-04T19:15:10.681Z,100234.69
2022-08-04T19:18:00.485Z,100248.03
2022-08-04T19:20:30.852Z,100266.59
2022-08-04T19:24:11.437Z,100268.91
2022-08-04T19:26:03.011Z,100276.94
2022-08-04T19:28:36.055Z,100295.63
2022-08-04T19:31:05.794Z,100311.84
2022-08-04T19:33:59.107Z,100314.22
2022-08-04T19:36:28.007Z,100289.75
2022-08-04T19:38:58.020Z,100285.13
2022-08-04T19:41:26.956Z,100284.13
2022-08-04T19:43:55.726Z,100292.09
2022-08-04T19:46:24.722Z,100307.94
2022-08-04T19:48:59.855Z,100310.22
2022-08-04T19:51:30.471Z,100299.72
2022-08-04T19:54:02.930Z,100298.66
2022-08-04T19:56:40.189Z,100309.97
2022-08-04T19:59:09.497Z,100314.63
2022-08-04T20:01:44.155Z,100324.50
2022-08-04T20:04:13.596Z,100321.31
2022-08-04T20:06:43.887Z,100313.41
2022-08-04T20:09:16.951Z,100322.97
2022-08-04T20:11:54.572Z,100321.13
2022-08-04T20:14:32.612Z,100326.59
2022-08-04T20:17:10.470Z,100336.09
2022-08-04T20:19:38.862Z,100333.72
2022-08-04T20:22:52.724Z,100319.53
2022-08-04T20:25:17.921Z,100316.53
2022-08-04T20:27:51.671Z,100316.53
2022-08-04T20:30:28.628Z,100303.50
2022-08-04T20:33:00.933Z,100295.31
2022-08-04T20:35:29.442Z,100278.13
2022-08-04T20:38:01.867Z,100269.13
2022-08-04T20:40:30.172Z,100265.59
2022-08-04T20:42:58.886Z,100286.53
2022-08-04T20:45:55.683Z,100296.38
2022-08-04T20:48:15.163Z,100295.41
2022-08-04T20:50:54.145Z,100271.19
2022-08-04T20:53:46.833Z,100272.97
2022-08-04T20:56:11.567Z,100322.94
2022-08-04T20:58:48.024Z,100347.28
2022-08-04T21:01:16.110Z,100357.22
2022-08-04T21:04:02.028Z,100344.50
2022-08-04T21:06:30.163Z,100348.16
2022-08-04T21:08:59.630Z,100354.19
2022-08-04T21:11:37.816Z,100346.03
2022-08-04T21:14:10.503Z,100338.19
2022-08-04T21:16:55.422Z,100334.16
2022-08-04T21:19:24.682Z,100333.34
2022-08-04T21:21:58.773Z,100333.63
2022-08-04T21:24:28.418Z,100331.72
2022-08-04T21:26:58.201Z,100322.72
2022-08-04T21:29:34.960Z,100323.25
2022-08-04T21:32:05.692Z,100309.38
2022-08-04T21:34:37.810Z,100308.28
2022-08-04T21:37:07.154Z,100311.88
2022-08-04T21:39:50.287Z,100313.00
2022-08-04T21:42:29.011Z,100318.50
2022-08-04T21:44:58.709Z,100318.50
2022-08-04T21:47:26.811Z,100314.16
2022-08-04T21:50:14.272Z,100319.13
2022-08-04T21:52:59.846Z,100319.09
2022-08-04T21:56:04.648Z,100318.06
2022-08-04T21:58:19.353Z,100318.06
2022-08-04T22:01:00.527Z,100314.56
2022-08-04T22:03:53.167Z,100317.28
2022-08-04T22:06:18.156Z,100323.00
2022-08-04T22:08:49.198Z,100306.94
2022-08-04T22:11:43.827Z,100312.13
2022-08-04T22:14:17.707Z,100326.81
2022-08-04T22:16:56.719Z,100323.00
2022-08-04T22:19:40.013Z,100322.44
2022-08-04T22:22:24.566Z,100336.34
2022-08-04T22:24:54.922Z,100345.06
2022-08-04T22:27:38.099Z,100336.63
2022-08-04T22:30:17.416Z,100346.72
2022-08-04T22:32:46.357Z,100352.44
2022-08-04T22:35:36.267Z,100357.56
2022-08-04T22:38:06.567Z,100357.84
2022-08-04T22:40:49.952Z,100361.38
2022-08-04T22:43:32.654Z,100361.03
2022-08-04T22:46:03.662Z,100379.25
2022-08-04T22:48:32.733Z,100375.63
2022-08-04T22:51:00.933Z,100365.81
2022-08-04T22:53:30.695Z,100365.56
2022-08-04T22:56:09.833Z,100354.16
2022-08-04T22:58:45.444Z,100363.50
2022-08-04T23:01:20.138Z,100355.09
2022-08-04T23:03:55.872Z,100351.03
2022-08-04T23:06:25.508Z,100344.81
2022-08-04T23:08:56.366Z,100348.06
2022-08-04T23:11:34.841Z,100332.59
2022-08-04T23:14:16.013Z,100334.75
2022-08-04T23:16:44.030Z,100326.09
2022-08-04T23:19:15.303Z,100336.16
2022-08-04T23:21:47.698Z,100338.38
2022-08-04T23:24:29.478Z,100329.38
2022-08-04T23:26:58.172Z,100330.19
2022-08-04T23:29:27.794Z,100343.56
2022-08-04T23:32:15.775Z,100351.72
2022-08-04T23:34:48.412Z,100353.03
2022-08-04T23:37:16.567Z,100365.28
2022-08-04T23:40:14.461Z,100357.69
2022-08-04T23:42:32.759Z,100342.16
2022-08-04T23:45:06.771Z,100331.28
2022-08-04T23:48:18.533Z,100317.66
2022-08-04T23:50:24.075Z,100325.03
2022-08-04T23:52:52.992Z,100339.72
2022-08-04T23:55:21.274Z,100329.13
2022-08-04T23:58:05.892Z,100325.56
